Time;durP1;ratioP1;P1;durP2;ratioP2;P2;SDS_P1;SDS_P2;PMS_P1;PMS_P2;Temp;Humidity;BMP_temperature;BMP_pressure;BME280_temperature;BME280_humidity;BME280_pressure;Samples;Min_cycle;Max_cycle;Signal;HPM_P1;HPM_P2
2022/07/03 06:17:10;;;;;;;5.10;1.35;;;20.80;97.00;;;;;;6210106;22;20032;-73
2022/07/03 06:22:55;;;;;;;5.03;1.23;;;21.30;96.30;;;;;;6100466;23;20014;-72
2022/07/03 06:25:21;;;;;;;3.75;1.70;;;21.40;96.50;;;;;;6076308;23;20009;-72
2022/07/03 06:27:54;;;;;;;4.85;1.30;;;21.70;95.90;;;;;;6174915;23;20016;-72
2022/07/03 06:30:19;;;;;;;8.30;1.25;;;21.80;95.40;;;;;;6247649;23;20427;-73
2022/07/03 06:32:48;;;;;;;10.02;1.30;;;22.00;95.30;;;;;;6247531;23;20042;-72
2022/07/03 06:35:19;;;;;;;4.75;1.10;;;22.10;94.70;;;;;;6194636;23;20330;-72
2022/07/03 06:37:48;;;;;;;3.40;1.35;;;22.00;94.80;;;;;;6220860;23;20012;-73
2022/07/03 06:40:14;;;;;;;5.78;1.92;;;22.10;94.70;;;;;;6219927;23;20458;-73
2022/07/03 06:42:39;;;;;;;7.00;1.25;;;22.10;94.70;;;;;;6195479;23;20024;-72
2022/07/03 06:45:40;;;;;;;3.03;1.40;;;22.20;94.60;;;;;;6195221;23;20012;-73
2022/07/03 06:48:11;;;;;;;7.80;1.80;;;22.40;93.80;;;;;;6194448;23;20019;-74
2022/07/03 06:50:37;;;;;;;10.77;1.27;;;22.50;94.30;;;;;;6219783;23;20044;-73
2022/07/03 06:53:03;;;;;;;5.65;1.23;;;22.70;93.60;;;;;;6247307;23;20022;-73
2022/07/03 07:16:50;;;;;;;8.50;1.30;;;23.40;90.40;;;;;;6152108;23;20014;-73
2022/07/03 07:19:19;;;;;;;8.35;1.38;;;23.60;89.10;;;;;;6113931;23;20013;-71
2022/07/03 07:22:25;;;;;;;;;;;;;;;;;;;;;
2022/07/03 07:25:16;;;;;;;5.30;1.10;;;23.50;88.30;;;;;;6109280;23;19923;-72
2022/07/03 07:28:34;;;;;;;;;;;;;;;;;;;;;
2022/07/03 07:39:31;;;;;;;6.05;1.10;;;23.80;87.30;;;;;;6065955;23;20059;-78
2022/07/03 07:41:57;;;;;;;5.55;1.15;;;24.00;87.90;;;;;;6069648;23;20029;-79
2022/07/03 07:51:36;;;;;;;5.90;1.20;;;24.10;85.90;;;;;;6246402;23;20003;-80
2022/07/03 07:54:21;;;;;;;6.07;1.15;;;23.90;85.70;;;;;;6194937;23;20012;-82
2022/07/03 07:56:49;;;;;;;9.00;1.67;;;23.70;87.70;;;;;;6219556;23;20008;-78
2022/07/03 07:59:33;;;;;;;7.68;1.70;;;23.60;89.70;;;;;;6194800;23;20008;-82
2022/07/03 08:07:28;;;;;;;7.70;1.35;;;23.30;91.00;;;;;;6219548;23;20100;-76
2022/07/03 08:09:56;;;;;;;6.75;1.52;;;23.50;90.80;;;;;;6219712;23;20376;-80
2022/07/03 08:12:21;;;;;;;9.02;1.88;;;23.80;90.70;;;;;;6246100;23;20016;-73
2022/07/03 08:14:47;;;;;;;;;;;24.00;90.40;;;;;;6219443;23;20038;-76
2022/07/03 08:17:13;;;;;;;7.40;1.40;;;24.10;88.10;;;;;;6246436;22;19912;-77
2022/07/03 08:19:58;;;;;;;;;;;24.10;87.80;;;;;;6220231;23;20012;-77
2022/07/03 08:22:24;;;;;;;5.30;1.10;;;24.20;86.40;;;;;;6194674;23;20225;-76
2022/07/03 08:24:49;;;;;;;;;;;24.40;87.10;;;;;;6219708;23;20091;-76
2022/07/03 08:27:15;;;;;;;7.78;1.50;;;24.50;85.70;;;;;;6194487;23;20222;-74
2022/07/03 08:29:41;;;;;;;;;;;24.70;87.00;;;;;;6145746;23;20086;-68
2022/07/03 08:32:07;;;;;;;9.60;1.77;;;24.80;86.00;;;;;;6219615;23;19911;-74
2022/07/03 08:34:33;;;;;;;6.00;1.48;;;24.90;86.30;;;;;;6219568;23;20008;-75
2022/07/03 08:37:01;;;;;;;;;;;25.10;85.40;;;;;;6246909;22;20139;-77
2022/07/03 08:39:26;;;;;;;8.18;1.73;;;24.90;83.80;;;;;;6200722;23;20313;-78
2022/07/03 08:41:55;;;;;;;;;;;24.70;85.70;;;;;;6204177;23;20012;-78
2022/07/03 08:44:24;;;;;;;6.78;1.40;;;24.70;85.00;;;;;;6219273;23;19911;-77
2022/07/03 08:46:51;;;;;;;8.85;1.50;;;24.90;84.80;;;;;;6194498;23;20026;-75
2022/07/03 08:53:06;;;;;;;6.40;1.30;;;25.10;83.00;;;;;;6238443;23;20019;-78
2022/07/03 08:55:55;;;;;;;7.10;1.75;;;24.90;83.40;;;;;;6217617;23;20316;-78
2022/07/03 08:58:29;;;;;;;7.30;1.50;;;25.00;81.10;;;;;;6192845;23;20008;-79
2022/07/03 09:00:55;;;;;;;9.25;1.90;;;25.10;83.80;;;;;;6192350;23;20015;-71
2022/07/03 09:03:26;;;;;;;6.88;1.40;;;25.40;83.50;;;;;;6191221;23;20004;-75
2022/07/03 09:05:52;;;;;;;7.70;1.50;;;25.80;81.90;;;;;;6217965;23;20012;-76
2022/07/03 09:08:31;;;;;;;9.45;1.30;;;26.20;81.10;;;;;;6213092;23;20008;-79
2022/07/03 09:10:57;;;;;;;8.00;1.83;;;26.10;80.80;;;;;;6212997;23;20013;-76
2022/07/03 09:13:23;;;;;;;9.23;1.50;;;26.20;81.40;;;;;;6212154;23;20005;-74
2022/07/03 09:15:49;;;;;;;10.40;1.60;;;25.90;80.70;;;;;;6213026;23;20075;-76
2022/07/03 09:18:14;;;;;;;6.10;1.25;;;25.40;81.90;;;;;;6214263;23;20434;-74
2022/07/03 09:20:44;;;;;;;10.43;1.45;;;25.30;82.50;;;;;;6214151;23;20309;-77
2022/07/03 09:23:22;;;;;;;10.55;1.55;;;25.40;83.00;;;;;;6213253;23;20055;-78
2022/07/03 09:25:57;;;;;;;8.13;1.70;;;25.30;82.20;;;;;;6189321;23;20012;-78
2022/07/03 09:28:41;;;;;;;7.73;1.60;;;25.30;82.60;;;;;;6214428;23;20051;-77
2022/07/03 09:31:07;;;;;;;8.35;1.70;;;24.90;83.20;;;;;;6213822;23;20051;-76
2022/07/03 09:33:33;;;;;;;8.95;1.67;;;24.70;83.60;;;;;;6188507;23;20016;-76
2022/07/03 09:35:59;;;;;;;9.10;1.70;;;24.30;84.40;;;;;;6214081;23;20352;-76
2022/07/03 09:38:25;;;;;;;7.40;1.30;;;24.00;85.00;;;;;;6213521;23;20008;-77
2022/07/03 09:40:53;;;;;;;7.80;1.73;;;23.90;85.60;;;;;;6188888;23;20008;-78
2022/07/03 09:43:33;;;;;;;9.63;1.42;;;23.70;86.80;;;;;;6189084;23;20009;-73
2022/07/03 09:46:04;;;;;;;10.77;1.77;;;23.60;88.70;;;;;;6189806;23;20008;-79
2022/07/03 09:48:35;;;;;;;10.18;1.80;;;23.40;89.10;;;;;;6189214;23;20327;-73
2022/07/03 09:51:26;;;;;;;9.65;1.88;;;23.30;89.90;;;;;;6215783;23;20018;-74
2022/07/03 09:54:00;;;;;;;9.73;1.90;;;23.20;90.60;;;;;;6215675;23;20009;-74
2022/07/03 09:56:37;;;;;;;10.38;1.83;;;23.20;90.50;;;;;;6214416;23;20454;-71
2022/07/03 09:59:24;;;;;;;8.05;1.63;;;23.40;90.60;;;;;;6214671;23;20048;-79
2022/07/03 10:02:08;;;;;;;10.10;1.52;;;23.60;90.50;;;;;;6214403;23;20322;-73
2022/07/03 10:04:34;;;;;;;11.27;1.77;;;23.90;89.90;;;;;;6199999;23;20008;-72
2022/07/03 10:10:46;;;;;;;7.32;1.17;;;23.80;90.30;;;;;;6244258;22;19927;-73
2022/07/03 10:13:12;;;;;;;6.85;1.42;;;24.20;89.90;;;;;;6218901;23;20107;-76
2022/07/03 10:15:39;;;;;;;7.63;1.67;;;24.50;88.40;;;;;;6194500;23;20016;-73
2022/07/03 10:18:11;;;;;;;10.60;2.10;;;24.40;87.70;;;;;;6219145;23;20047;-72
2022/07/03 10:20:44;;;;;;;6.18;1.30;;;24.10;87.00;;;;;;6219414;23;20012;-72
2022/07/03 10:23:11;;;;;;;6.60;1.60;;;24.00;86.30;;;;;;6193749;23;20099;-75
2022/07/03 10:25:41;;;;;;;5.15;1.20;;;23.90;86.80;;;;;;6169599;23;20145;-73
2022/07/03 10:28:13;;;;;;;4.82;1.20;;;24.30;87.10;;;;;;6218962;23;20489;-76
2022/07/03 10:30:49;;;;;;;6.20;1.48;;;24.60;86.70;;;;;;6219521;23;20378;-69
2022/07/03 10:33:15;;;;;;;5.63;1.00;;;25.00;82.70;;;;;;6193171;23;20446;-71
2022/07/03 10:35:53;;;;;;;9.40;1.20;;;25.00;83.60;;;;;;6218927;23;20750;-71
2022/07/03 10:38:42;;;;;;;6.25;1.10;;;24.90;83.70;;;;;;6218504;23;20027;-71
2022/07/03 10:47:05;;;;;;;4.25;1.02;;;24.60;84.40;;;;;;6197625;23;20012;-70
2022/07/03 10:50:06;;;;;;;4.72;0.80;;;25.00;84.60;;;;;;6219010;23;20326;-72
2022/07/03 10:52:35;;;;;;;4.95;1.02;;;25.20;82.80;;;;;;6217727;23;20504;-69
2022/07/03 10:55:03;;;;;;;4.78;1.50;;;25.20;82.20;;;;;;6219113;23;20008;-76
2022/07/03 10:57:28;;;;;;;3.25;0.88;;;24.90;82.10;;;;;;6193762;23;20012;-69
2022/07/03 10:59:54;;;;;;;5.40;1.08;;;24.90;82.60;;;;;;6219089;23;20067;-72
2022/07/03 11:02:34;;;;;;;4.93;1.00;;;24.90;82.30;;;;;;6218018;23;20382;-75
2022/07/03 11:05:03;;;;;;;3.70;0.90;;;25.10;82.30;;;;;;6193434;23;20439;-74
2022/07/03 11:07:44;;;;;;;5.88;0.90;;;25.20;81.70;;;;;;6193603;23;20019;-70
2022/07/03 11:10:15;;;;;;;3.25;0.80;;;25.10;80.70;;;;;;6194872;23;20013;-74
2022/07/03 11:13:42;;;;;;;5.00;1.02;;;25.00;81.30;;;;;;6157882;23;20009;-72
2022/07/03 16:09:18;;;;;;;5.40;1.35;;;21.40;90.50;;;;;;6105954;23;20089;-74
2022/07/03 16:11:45;;;;;;;5.13;1.70;;;21.40;90.20;;;;;;6159860;23;20016;-74
2022/07/03 16:14:12;;;;;;;3.70;1.20;;;21.40;90.40;;;;;;6186370;23;20335;-74
2022/07/03 16:16:38;;;;;;;6.32;1.50;;;21.50;90.20;;;;;;6160140;23;20363;-75
2022/07/03 16:19:05;;;;;;;4.97;1.42;;;21.50;90.00;;;;;;6159724;23;20099;-74
2022/07/03 16:21:32;;;;;;;5.10;1.40;;;21.50;88.90;;;;;;6110888;23;20415;-74
2022/07/03 17:05:52;;;;;;;6.10;1.10;;;24.90;73.70;;;;;;6184158;23;20017;-73
2022/07/03 17:08:42;;;;;;;3.95;0.90;;;23.80;75.80;;;;;;6158870;23;20071;-74
2022/07/03 17:11:24;;;;;;;3.67;0.50;;;23.40;76.30;;;;;;6162958;23;20009;-73
2022/07/03 17:13:59;;;;;;;3.90;0.82;;;22.70;78.00;;;;;;6183919;23;20005;-72
2022/07/03 17:16:46;;;;;;;2.90;0.50;;;22.40;79.90;;;;;;6139882;23;20338;-72
2022/07/03 17:19:24;;;;;;;3.53;0.63;;;22.00;81.60;;;;;;6183895;23;20036;-71
2022/07/03 17:21:51;;;;;;;3.42;0.88;;;21.90;82.70;;;;;;6184041;23;20013;-70
2022/07/03 17:24:20;;;;;;;4.10;0.90;;;21.70;82.90;;;;;;6183687;23;20063;-71
2022/07/03 17:26:49;;;;;;;4.13;0.80;;;21.50;83.50;;;;;;6183698;23;20674;-71
2022/07/03 17:29:23;;;;;;;5.10;0.80;;;21.30;84.20;;;;;;6183315;23;20166;-67
2022/07/03 17:31:50;;;;;;;4.80;0.90;;;21.10;84.70;;;;;;6157598;23;20025;-70
2022/07/03 17:34:21;;;;;;;3.00;0.80;;;20.80;84.70;;;;;;6182282;23;20013;-72
2022/07/03 17:36:53;;;;;;;3.00;0.70;;;20.70;85.30;;;;;;6182344;23;20009;-71
2022/07/03 17:39:19;;;;;;;3.97;0.80;;;20.60;86.40;;;;;;6183782;23;20017;-75
2022/07/03 17:48:07;;;;;;;3.22;0.80;;;20.60;87.70;;;;;;6181131;23;20017;-71
2022/07/03 17:50:33;;;;;;;6.28;1.15;;;20.50;87.60;;;;;;6182443;23;20013;-71
2022/07/03 17:53:03;;;;;;;5.15;1.10;;;20.50;87.50;;;;;;6157580;23;20028;-71
2022/07/03 17:55:45;;;;;;;3.40;1.00;;;20.50;87.60;;;;;;6181811;23;20021;-72
2022/07/03 17:58:24;;;;;;;3.03;0.88;;;20.40;89.20;;;;;;6159212;23;20051;-71
2022/07/03 18:00:51;;;;;;;3.30;1.08;;;20.40;88.40;;;;;;6133230;23;20009;-70
2022/07/03 18:03:20;;;;;;;4.97;0.80;;;20.40;88.70;;;;;;6184963;23;20009;-72
2022/07/03 18:05:50;;;;;;;4.72;1.85;;;20.30;87.90;;;;;;6184342;23;20013;-68
2022/07/03 18:08:41;;;;;;;2.90;0.70;;;20.20;88.40;;;;;;6186074;23;20311;-70
2022/07/03 18:12:01;;;;;;;1.85;0.65;;;20.00;88.70;;;;;;6184204;23;20013;-69
2022/07/03 18:15:01;;;;;;;4.15;0.75;;;19.90;90.00;;;;;;6184362;23;20013;-72
2022/07/03 18:21:17;;;;;;;7.57;0.90;;;19.80;90.20;;;;;;6184197;23;20068;-77
2022/07/03 18:23:49;;;;;;;2.88;0.85;;;19.60;90.30;;;;;;6160883;23;20009;-70
2022/07/03 18:26:29;;;;;;;2.78;0.82;;;19.50;90.50;;;;;;6184404;23;20009;-74
2022/07/03 18:28:57;;;;;;;2.80;0.70;;;19.50;90.40;;;;;;6182139;23;20016;-71
2022/07/03 18:31:24;;;;;;;6.65;0.90;;;19.40;90.20;;;;;;6182518;23;20055;-71
2022/07/03 18:33:52;;;;;;;3.80;1.00;;;19.30;89.90;;;;;;6184086;23;20009;-71
2022/07/03 18:36:19;;;;;;;2.45;1.08;;;19.20;90.10;;;;;;6158899;23;20016;-75
2022/07/03 18:38:46;;;;;;;4.03;1.45;;;19.10;90.00;;;;;;6184061;23;20005;-70
2022/07/03 18:41:13;;;;;;;5.28;2.00;;;19.00;90.20;;;;;;6184476;23;20019;-71
2022/07/03 18:43:39;;;;;;;3.22;0.90;;;19.00;90.20;;;;;;6158547;23;20017;-76
2022/07/03 18:46:05;;;;;;;;;;;18.90;90.20;;;;;;6159180;23;20013;-75
2022/07/03 18:48:32;;;;;;;3.03;0.98;;;18.80;91.20;;;;;;6183905;23;20025;-71
2022/07/03 18:51:13;;;;;;;2.75;1.02;;;18.80;91.00;;;;;;6134608;23;20496;-74
2022/07/03 18:54:14;;;;;;;1.98;1.05;;;18.70;92.00;;;;;;6159502;23;20432;-76
2022/07/03 18:57:01;;;;;;;4.78;1.23;;;18.60;92.40;;;;;;6167793;23;20116;-73
2022/07/03 18:59:35;;;;;;;3.75;1.15;;;18.60;92.10;;;;;;6159193;23;20009;-73
2022/07/03 19:02:02;;;;;;;4.88;1.42;;;18.50;91.90;;;;;;6163652;23;20008;-75
2022/07/03 19:04:45;;;;;;;4.32;1.00;;;18.30;92.10;;;;;;6164178;23;20019;-69
2022/07/03 19:07:13;;;;;;;6.50;1.25;;;18.40;93.30;;;;;;6163598;23;20017;-70
2022/07/03 19:09:51;;;;;;;5.65;1.13;;;18.30;92.50;;;;;;6188975;23;20434;-75
2022/07/03 19:12:20;;;;;;;2.88;0.88;;;18.20;92.70;;;;;;6164313;23;20013;-72
2022/07/03 19:14:55;;;;;;;3.47;1.10;;;18.20;92.60;;;;;;6188788;23;20450;-68
2022/07/03 19:17:23;;;;;;;3.13;0.98;;;18.10;92.70;;;;;;6188747;23;20044;-74
2022/07/03 19:19:49;;;;;;;5.03;1.20;;;18.00;92.70;;;;;;6164120;23;20040;-69
2022/07/03 19:22:15;;;;;;;4.47;1.02;;;18.00;92.90;;;;;;6188642;23;20304;-74
2022/07/03 19:24:40;;;;;;;6.88;1.30;;;17.90;92.70;;;;;;6188560;23;20023;-69
2022/07/03 19:27:06;;;;;;;6.78;1.02;;;17.80;92.90;;;;;;6188646;23;20024;-69
2022/07/03 19:29:52;;;;;;;4.80;1.20;;;17.80;92.90;;;;;;6188473;23;20327;-77
2022/07/03 19:32:21;;;;;;;5.77;1.23;;;17.70;93.40;;;;;;6139092;23;20013;-71
2022/07/03 19:34:49;;;;;;;3.92;1.20;;;17.70;93.30;;;;;;6163689;23;20015;-72
2022/07/03 19:37:15;;;;;;;2.25;1.20;;;17.60;93.10;;;;;;6188608;23;20080;-72
2022/07/03 19:39:54;;;;;;;5.43;1.38;;;17.50;93.40;;;;;;6188354;23;20074;-75
2022/07/03 19:42:59;;;;;;;4.18;1.20;;;17.50;93.50;;;;;;6188570;23;20319;-74
2022/07/03 19:45:36;;;;;;;4.93;1.25;;;17.40;94.10;;;;;;6190428;23;20019;-73
2022/07/03 19:48:01;;;;;;;3.70;0.90;;;17.40;93.90;;;;;;6192043;23;20300;-72
2022/07/03 19:50:27;;;;;;;9.68;1.20;;;17.30;93.60;;;;;;6140881;23;20015;-72
2022/07/03 19:53:32;;;;;;;3.28;1.17;;;17.30;93.70;;;;;;6163847;23;20017;-74
2022/07/03 19:56:32;;;;;;;4.53;1.20;;;17.20;94.60;;;;;;6187788;23;20370;-74
2022/07/03 20:06:54;;;;;;;6.47;1.50;;;16.90;94.90;;;;;;6209475;23;20031;-72
2022/07/03 20:09:22;;;;;;;4.10;1.17;;;16.80;94.60;;;;;;6157395;23;20488;-71
2022/07/03 20:11:57;;;;;;;3.65;1.27;;;16.70;94.80;;;;;;6159107;23;20013;-72
2022/07/03 20:14:51;;;;;;;4.80;1.25;;;16.60;95.10;;;;;;6134554;23;20028;-76
2022/07/03 20:17:17;;;;;;;6.03;1.65;;;16.60;95.40;;;;;;6175121;23;20013;-71
2022/07/03 20:20:27;;;;;;;4.68;1.45;;;16.50;95.00;;;;;;6145380;23;20068;-74
2022/07/03 21:34:58;;;;;;;6.88;2.03;;;15.10;98.30;;;;;;6190622;22;20428;-76
2022/07/03 21:37:24;;;;;;;6.07;1.80;;;15.00;98.10;;;;;;6165693;23;20017;-77
2022/07/03 21:39:50;;;;;;;9.45;2.25;;;15.00;98.10;;;;;;6166885;23;20015;-77
2022/07/03 21:42:27;;;;;;;3.60;1.80;;;14.90;98.00;;;;;;6211414;23;20431;-71
2022/07/03 21:45:08;;;;;;;3.70;1.75;;;14.90;98.80;;;;;;6160723;23;20009;-77
2022/07/03 21:47:39;;;;;;;4.57;1.98;;;14.90;98.30;;;;;;6166767;23;20013;-76
2022/07/03 21:50:10;;;;;;;6.20;1.50;;;14.80;98.50;;;;;;6169946;23;20323;-76
2022/07/03 21:52:36;;;;;;;7.05;2.80;;;14.80;98.50;;;;;;6191207;23;20008;-78
2022/07/03 21:55:01;;;;;;;7.65;2.00;;;14.70;98.50;;;;;;6165934;23;20479;-78
2022/07/03 21:57:30;;;;;;;4.80;1.52;;;14.70;98.70;;;;;;6166213;23;20011;-77
2022/07/03 21:59:58;;;;;;;6.07;2.10;;;14.70;98.80;;;;;;6165837;23;20012;-77
2022/07/03 22:02:23;;;;;;;6.50;1.90;;;14.70;98.90;;;;;;6141546;23;20504;-77
2022/07/03 22:04:49;;;;;;;5.63;2.35;;;14.60;99.10;;;;;;6166187;23;20048;-78
2022/07/03 22:07:18;;;;;;;8.30;2.70;;;14.60;99.10;;;;;;6191262;23;20008;-77
2022/07/03 22:09:43;;;;;;;6.50;2.90;;;14.50;99.30;;;;;;6191188;23;20075;-76
2022/07/03 22:12:33;;;;;;;7.65;3.00;;;14.50;99.30;;;;;;6166360;23;20013;-76
2022/07/03 22:15:17;;;;;;;5.05;3.35;;;14.50;99.40;;;;;;6166208;23;20063;-77
2022/07/03 22:17:47;;;;;;;6.10;3.03;;;14.50;99.90;;;;;;6165917;23;20015;-78
2022/07/03 22:20:15;;;;;;;7.40;3.55;;;14.40;99.50;;;;;;6166247;23;20012;-79
2022/07/03 22:22:41;;;;;;;6.72;2.83;;;14.40;99.70;;;;;;6165886;23;20012;-76
2022/07/03 22:25:07;;;;;;;;;;;14.30;99.60;;;;;;6190972;23;20004;-78
2022/07/03 22:27:34;;;;;;;7.22;3.70;;;14.30;99.90;;;;;;6166346;23;19911;-78
2022/07/03 22:30:11;;;;;;;8.23;3.65;;;14.30;99.90;;;;;;6165842;23;20005;-77
2022/07/03 22:32:38;;;;;;;;;;;14.30;99.90;;;;;;6191059;23;20047;-78
2022/07/03 22:35:04;;;;;;;7.20;3.30;;;14.20;99.90;;;;;;6164759;23;19946;-76
2022/07/03 22:37:30;;;;;;;8.98;3.17;;;14.20;99.90;;;;;;6190978;23;20020;-76
2022/07/03 22:39:55;;;;;;;6.13;3.40;;;14.10;99.90;;;;;;6165903;23;20009;-78
2022/07/03 22:42:21;;;;;;;8.13;3.25;;;14.10;99.90;;;;;;6165689;23;20435;-78
2022/07/03 22:44:47;;;;;;;7.35;3.38;;;14.00;99.90;;;;;;6189781;23;20004;-77
2022/07/03 22:47:13;;;;;;;7.82;3.35;;;14.00;99.90;;;;;;6190418;23;20008;-78
2022/07/03 22:49:40;;;;;;;6.35;3.80;;;14.00;99.90;;;;;;6189918;23;20486;-76
2022/07/03 22:52:06;;;;;;;7.25;3.63;;;14.00;99.90;;;;;;6189564;23;20478;-78
2022/07/03 22:54:32;;;;;;;;;;;13.90;99.90;;;;;;6166303;23;20048;-78
2022/07/03 22:56:59;;;;;;;6.80;3.13;;;13.90;99.90;;;;;;6166247;23;19915;-77
2022/07/03 22:59:25;;;;;;;;;;;14.00;99.90;;;;;;6190707;23;20012;-78
2022/07/03 23:01:51;;;;;;;5.82;3.40;;;13.90;99.90;;;;;;6190418;23;19908;-77
2022/07/03 23:04:17;;;;;;;6.22;3.40;;;13.90;99.90;;;;;;6165598;23;20008;-78
2022/07/03 23:06:42;;;;;;;6.97;3.65;;;13.90;99.90;;;;;;6165748;23;20013;-77
2022/07/03 23:09:11;;;;;;;7.18;3.60;;;13.80;99.90;;;;;;6165460;23;20040;-76
2022/07/03 23:11:42;;;;;;;6.63;3.60;;;13.80;99.90;;;;;;6167947;23;20043;-80
2022/07/03 23:14:08;;;;;;;5.85;3.47;;;13.80;99.90;;;;;;6177927;23;20004;-77
2022/07/03 23:16:34;;;;;;;11.07;3.75;;;13.80;99.90;;;;;;6176576;23;20492;-77
2022/07/03 23:19:00;;;;;;;7.40;3.45;;;13.80;99.90;;;;;;6165526;23;20032;-78
2022/07/03 23:21:25;;;;;;;6.13;3.85;;;13.70;99.90;;;;;;6165327;23;20012;-77
2022/07/03 23:23:52;;;;;;;8.15;3.63;;;13.70;99.90;;;;;;6164872;23;20323;-78
2022/07/03 23:26:18;;;;;;;6.38;3.22;;;13.70;99.90;;;;;;6165582;23;20013;-77
2022/07/03 23:28:47;;;;;;;8.60;3.92;;;13.70;99.90;;;;;;6165605;23;20012;-78
2022/07/03 23:31:12;;;;;;;8.90;3.88;;;13.70;99.90;;;;;;6165456;23;20435;-76
2022/07/03 23:33:38;;;;;;;8.82;3.95;;;13.70;99.90;;;;;;6165576;23;20091;-77
2022/07/03 23:36:04;;;;;;;9.73;4.22;;;13.60;99.90;;;;;;6189819;23;20012;-77
2022/07/03 23:38:30;;;;;;;6.30;3.60;;;13.60;99.90;;;;;;6164972;23;20021;-77
2022/07/03 23:40:56;;;;;;;7.82;3.83;;;13.60;99.90;;;;;;6165347;23;20096;-76
2022/07/03 23:43:22;;;;;;;6.63;3.60;;;13.50;99.90;;;;;;6165297;23;20017;-77
2022/07/03 23:45:47;;;;;;;5.40;3.63;;;13.50;99.90;;;;;;6165393;23;20367;-76
2022/07/03 23:51:11;;;;;;;7.97;4.00;;;13.50;99.90;;;;;;6140690;23;20435;-78
2022/07/03 23:53:37;;;;;;;7.85;4.75;;;13.50;99.90;;;;;;6189976;23;20044;-78
2022/07/03 23:56:02;;;;;;;9.45;3.55;;;13.50;99.90;;;;;;6164853;23;20020;-78
2022/07/03 23:58:28;;;;;;;9.45;4.05;;;13.50;99.90;;;;;;6164716;23;20012;-78
